Time;durP1;ratioP1;P1;durP2;ratioP2;P2;SDS_P1;SDS_P2;PMS_P1;PMS_P2;Temp;Humidity;BMP_temperature;BMP_pressure;BME280_temperature;BME280_humidity;BME280_pressure;Samples;Min_cycle;Max_cycle;Signal;HPM_P1;HPM_P2
2023/05/31 00:00:09;;;;;;;1.45;1.33;;;;;;;11.64;71.40;101539.88;5005221;28;20057;-47
2023/05/31 00:02:36;;;;;;;1.88;0.63;;;;;;;11.61;70.95;101539.84;5004035;28;20405;-43
2023/05/31 00:05:03;;;;;;;1.80;0.68;;;;;;;11.55;71.85;101544.09;4997845;28;20042;-45
2023/05/31 00:07:30;;;;;;;1.65;1.05;;;;;;;11.57;71.45;101544.09;5005786;28;20041;-43
2023/05/31 00:09:56;;;;;;;1.70;1.02;;;;;;;11.52;71.70;101531.06;5013592;28;20138;-45
2023/05/31 00:12:23;;;;;;;2.70;1.05;;;;;;;11.52;72.15;101531.06;5006518;28;20053;-45
2023/05/31 00:14:49;;;;;;;1.70;1.30;;;;;;;11.53;70.48;101531.94;5022544;28;20096;-43
2023/05/31 00:17:16;;;;;;;2.63;0.70;;;;;;;11.51;71.09;101526.72;5010741;28;20668;-43
2023/05/31 00:20:03;;;;;;;1.02;0.85;;;;;;;11.47;71.68;101522.31;5010601;28;20501;-46
2023/05/31 00:22:30;;;;;;;1.13;1.02;;;;;;;11.46;71.34;101525.78;5006181;28;20045;-44
2023/05/31 00:24:56;;;;;;;1.63;0.50;;;;;;;11.44;70.93;101523.16;5020942;28;20041;-45
2023/05/31 00:27:23;;;;;;;1.80;0.82;;;;;;;11.44;71.15;101527.44;5017677;28;20048;-43
2023/05/31 00:29:49;;;;;;;1.50;0.93;;;;;;;11.44;71.68;101527.44;5014100;28;20053;-43
2023/05/31 00:32:16;;;;;;;3.25;0.98;;;;;;;11.45;71.39;101524.00;5002272;28;20064;-42
2023/05/31 00:34:43;;;;;;;1.50;0.73;;;;;;;11.42;71.94;101521.38;5013307;28;20060;-42
2023/05/31 00:37:09;;;;;;;1.55;0.70;;;;;;;11.40;71.01;101521.34;5012572;28;20402;-44
2023/05/31 00:39:36;;;;;;;1.20;0.95;;;;;;;11.38;72.10;101522.19;5002474;28;20046;-44
2023/05/31 00:42:03;;;;;;;3.78;0.98;;;;;;;11.35;72.43;101528.16;5011922;28;20133;-45
2023/05/31 00:44:29;;;;;;;1.25;0.47;;;;;;;11.37;71.15;101523.00;5006799;28;20046;-45
2023/05/31 00:46:56;;;;;;;4.32;1.23;;;;;;;11.35;72.20;101522.13;5014879;28;20056;-44
2023/05/31 00:49:23;;;;;;;1.23;1.13;;;;;;;11.36;71.26;101521.25;5009073;28;20041;-46
2023/05/31 00:51:50;;;;;;;1.70;1.27;;;;;;;11.35;71.18;101524.72;5006156;28;20502;-43
2023/05/31 00:54:17;;;;;;;1.55;1.20;;;;;;;11.37;71.35;101528.19;5021645;28;20509;-43
2023/05/31 00:56:43;;;;;;;1.25;0.82;;;;;;;11.36;71.91;101523.84;5005655;28;20141;-44
2023/05/31 00:59:10;;;;;;;3.50;1.15;;;;;;;11.37;71.29;101525.59;4997350;28;20049;-47
2023/05/31 01:01:37;;;;;;;2.60;0.60;;;;;;;11.32;72.93;101528.97;5003760;28;20046;-43
2023/05/31 01:04:05;;;;;;;1.38;0.75;;;;;;;11.36;72.02;101518.66;5011912;28;20131;-47
2023/05/31 01:06:34;;;;;;;6.20;1.00;;;;;;;11.37;71.37;101523.00;5012730;28;20446;-43
2023/05/31 01:09:07;;;;;;;1.23;0.63;;;;;;;11.34;71.44;101516.03;5013876;28;20045;-43
2023/05/31 01:16:54;;;;;;;1.27;0.82;;;;;;;11.27;71.77;101522.84;5050894;27;20401;-44
2023/05/31 01:19:47;;;;;;;2.30;0.50;;;;;;;11.18;72.08;101518.34;5025606;28;20049;-42
2023/05/31 01:22:41;;;;;;;1.80;0.80;;;;;;;11.15;71.85;101520.03;5021088;28;20049;-43
2023/05/31 01:25:34;;;;;;;1.52;0.52;;;;;;;11.16;71.84;101521.78;5034938;28;20037;-43
2023/05/31 01:28:05;;;;;;;1.58;0.77;;;;;;;11.12;72.67;101514.78;5022863;28;20048;-47
2023/05/31 01:30:32;;;;;;;3.13;0.50;;;;;;;11.09;72.59;101514.72;5042086;28;20045;-44
2023/05/31 01:33:00;;;;;;;1.10;0.52;;;;;;;11.08;71.64;101510.38;5042741;28;20132;-43
2023/05/31 01:35:27;;;;;;;1.05;0.70;;;;;;;11.03;72.49;101506.00;5042907;28;20041;-41
2023/05/31 01:37:53;;;;;;;2.42;0.55;;;;;;;11.01;72.09;101512.84;5042602;28;20118;-43
2023/05/31 01:40:20;;;;;;;1.10;0.68;;;;;;;10.96;72.10;101509.31;5037445;28;20540;-45
2023/05/31 01:42:50;;;;;;;2.20;0.50;;;;;;;10.91;71.64;101500.59;5042343;28;20387;-45
2023/05/31 01:45:18;;;;;;;1.33;0.68;;;;;;;10.91;72.32;101505.75;5041559;28;20524;-45
2023/05/31 01:47:47;;;;;;;1.63;0.40;;;;;;;10.90;71.38;101510.06;5042576;28;20049;-43
2023/05/31 01:50:14;;;;;;;0.90;0.50;;;;;;;10.89;71.98;101505.72;5042099;28;20041;-44
2023/05/31 01:52:41;;;;;;;0.47;0.25;;;;;;;10.88;72.35;101510.88;5039754;28;20049;-45
2023/05/31 01:55:08;;;;;;;1.10;0.45;;;;;;;10.89;71.98;101512.63;5040321;28;20037;-45
2023/05/31 01:57:39;;;;;;;0.65;0.45;;;;;;;10.88;71.37;101505.69;5042337;28;20099;-44
2023/05/31 02:00:11;;;;;;;0.70;0.40;;;;;;;10.89;71.32;101502.25;5041139;28;20048;-44
2023/05/31 02:02:41;;;;;;;3.03;0.63;;;;;;;10.89;72.27;101510.03;5043414;28;20041;-44
2023/05/31 02:05:12;;;;;;;0.93;0.35;;;;;;;10.87;72.81;101503.94;5041851;28;20133;-44
2023/05/31 02:07:40;;;;;;;1.60;0.60;;;;;;;10.84;72.39;101503.91;5041330;28;20493;-43
2023/05/31 02:10:08;;;;;;;2.58;1.65;;;;;;;10.78;72.15;101500.31;5040514;28;20425;-46
2023/05/31 02:12:35;;;;;;;0.90;0.60;;;;;;;10.77;72.68;101503.75;5040915;28;20052;-44
2023/05/31 02:15:03;;;;;;;1.45;0.63;;;;;;;10.76;73.04;101496.84;5042415;28;20049;-45
2023/05/31 02:17:32;;;;;;;1.35;0.70;;;;;;;10.77;72.08;101495.09;5034420;28;20041;-43
2023/05/31 02:19:59;;;;;;;0.95;0.60;;;;;;;10.74;73.00;101498.50;5038937;28;20080;-43
2023/05/31 02:22:26;;;;;;;2.08;0.75;;;;;;;10.77;72.30;101503.75;5036334;28;20045;-43
2023/05/31 02:24:52;;;;;;;0.73;0.40;;;;;;;10.78;72.58;101510.69;5041586;28;20060;-42
2023/05/31 02:27:19;;;;;;;0.77;0.30;;;;;;;10.80;73.36;101503.81;5033460;28;20128;-44
2023/05/31 02:29:46;;;;;;;0.70;0.40;;;;;;;10.80;72.90;101503.81;5028779;28;20495;-42
2023/05/31 02:32:12;;;;;;;1.35;0.88;;;;;;;10.82;72.97;101505.56;5028584;28;20171;-43
2023/05/31 02:34:39;;;;;;;1.45;0.63;;;;;;;10.80;73.19;101503.81;5028620;28;20448;-41
2023/05/31 02:37:06;;;;;;;0.85;0.50;;;;;;;10.78;73.81;101500.31;5027884;28;20056;-42
2023/05/31 02:39:32;;;;;;;2.17;0.82;;;;;;;10.77;74.15;101498.56;5027933;28;20048;-43
2023/05/31 02:41:59;;;;;;;1.73;0.95;;;;;;;10.74;73.84;101495.91;5025405;28;20045;-44
2023/05/31 02:44:26;;;;;;;1.80;0.75;;;;;;;10.75;73.27;101500.28;5028539;28;20075;-42
2023/05/31 02:46:53;;;;;;;1.58;1.48;;;;;;;10.75;73.61;101504.56;5032711;28;20390;-43
2023/05/31 02:49:20;;;;;;;2.58;0.88;;;;;;;10.77;72.96;101498.56;5028144;28;20052;-42
2023/05/31 02:51:47;;;;;;;1.20;0.75;;;;;;;10.78;73.79;101500.31;5025447;28;20057;-43
2023/05/31 02:54:14;;;;;;;2.70;0.95;;;;;;;10.82;72.71;101500.38;5028203;28;20137;-43
2023/05/31 02:56:40;;;;;;;1.27;0.75;;;;;;;10.80;73.74;101493.47;5029008;28;20049;-44
2023/05/31 02:59:07;;;;;;;1.85;1.20;;;;;;;10.83;73.67;101496.94;5030082;28;20059;-47
2023/05/31 03:01:34;;;;;;;2.58;0.80;;;;;;;10.80;73.31;101496.06;5028050;28;20087;-46
2023/05/31 03:04:00;;;;;;;3.17;0.65;;;;;;;10.79;73.59;101486.53;5028204;28;20041;-43
2023/05/31 03:06:28;;;;;;;2.22;0.88;;;;;;;10.83;73.55;101492.63;5023401;28;20048;-43
2023/05/31 03:08:54;;;;;;;2.78;1.50;;;;;;;10.82;73.46;101482.25;5029341;28;20389;-45
2023/05/31 03:11:21;;;;;;;1.55;0.65;;;;;;;10.83;74.16;101486.56;5026959;28;20540;-43
2023/05/31 03:13:48;;;;;;;1.15;0.73;;;;;;;10.84;73.95;101486.59;5019869;28;20687;-42
2023/05/31 03:16:16;;;;;;;2.70;0.80;;;;;;;10.83;73.73;101481.38;5027307;28;20068;-43
2023/05/31 03:18:43;;;;;;;5.45;0.73;;;;;;;10.86;73.26;101486.63;5026731;28;20060;-43
2023/05/31 03:21:09;;;;;;;1.58;0.73;;;;;;;10.85;73.90;101485.78;5021198;28;20049;-44
2023/05/31 03:23:37;;;;;;;2.67;1.00;;;;;;;10.85;73.35;101484.91;5027617;28;20473;-47
2023/05/31 03:26:04;;;;;;;1.73;0.82;;;;;;;10.83;73.41;101481.38;5025239;28;20038;-42
2023/05/31 03:28:30;;;;;;;2.78;0.70;;;;;;;10.83;73.28;101478.78;5027994;28;20053;-43
2023/05/31 03:30:57;;;;;;;0.88;0.65;;;;;;;10.83;73.78;101481.38;5021809;28;20053;-44
2023/05/31 03:33:24;;;;;;;3.50;1.45;;;;;;;10.80;73.42;101475.31;5020097;28;20049;-44
2023/05/31 03:35:50;;;;;;;2.33;0.93;;;;;;;10.83;73.72;101478.78;5026378;28;20124;-42
2023/05/31 03:38:17;;;;;;;1.80;0.70;;;;;;;10.83;73.64;101478.78;5026653;28;20148;-45
2023/05/31 03:40:44;;;;;;;3.17;0.60;;;;;;;10.83;73.55;101477.09;5024312;28;20049;-43
2023/05/31 03:43:10;;;;;;;1.88;0.60;;;;;;;10.85;74.02;101479.72;5025838;28;20047;-44
2023/05/31 03:45:37;;;;;;;1.85;1.10;;;;;;;10.82;74.18;101475.34;5026249;28;20069;-44
2023/05/31 03:48:04;;;;;;;1.95;0.95;;;;;;;10.84;74.31;101476.25;5027444;28;20051;-44
2023/05/31 03:50:31;;;;;;;1.02;0.40;;;;;;;10.85;73.58;101479.72;5026779;28;20665;-43
2023/05/31 03:52:57;;;;;;;2.30;0.63;;;;;;;10.84;73.87;101472.78;5025138;28;20045;-44
2023/05/31 03:55:25;;;;;;;1.88;0.65;;;;;;;10.79;74.62;101476.16;5022258;28;20053;-45
2023/05/31 03:57:51;;;;;;;0.82;0.47;;;;;;;10.79;74.16;101471.00;5026907;28;20493;-44
2023/05/31 04:00:18;;;;;;;0.90;0.50;;;;;;;10.80;74.34;101483.09;5025274;28;20049;-43
2023/05/31 04:02:45;;;;;;;2.17;0.90;;;;;;;10.82;73.70;101474.47;5026491;28;20053;-45
2023/05/31 04:05:30;;;;;;;3.65;2.83;;;;;;;10.84;74.37;101477.97;5024252;28;20385;-43
2023/05/31 04:07:57;;;;;;;1.38;1.00;;;;;;;10.84;74.25;101483.16;5026153;28;20099;-45
2023/05/31 04:10:23;;;;;;;1.85;0.60;;;;;;;10.85;74.47;101474.53;5026627;28;20049;-44
2023/05/31 04:12:50;;;;;;;1.27;0.50;;;;;;;10.85;74.22;101479.72;5026953;28;20619;-44
2023/05/31 04:15:17;;;;;;;2.58;0.80;;;;;;;10.85;74.26;101474.53;5026075;28;20055;-44
2023/05/31 04:17:43;;;;;;;2.67;0.68;;;;;;;10.84;74.56;101477.97;5027565;28;20065;-43
2023/05/31 04:20:11;;;;;;;2.42;0.73;;;;;;;10.83;74.82;101476.19;5024939;28;20045;-43
2023/05/31 04:22:38;;;;;;;1.42;0.70;;;;;;;10.85;74.27;101477.13;5027191;28;20052;-42
2023/05/31 04:25:05;;;;;;;0.95;0.47;;;;;;;10.87;74.34;101478.91;5026480;28;20055;-43
2023/05/31 04:27:32;;;;;;;1.25;0.52;;;;;;;10.86;74.26;101476.28;5025549;28;20049;-46
2023/05/31 04:30:00;;;;;;;1.38;0.85;;;;;;;10.83;74.97;101473.63;5026188;28;20044;-43
2023/05/31 04:32:27;;;;;;;1.98;0.88;;;;;;;10.85;74.21;101479.72;5024678;28;20049;-46
2023/05/31 04:34:57;;;;;;;0.93;0.50;;;;;;;10.86;74.16;101476.28;5022842;28;20054;-42
2023/05/31 04:37:26;;;;;;;1.55;1.45;;;;;;;10.80;74.29;101483.09;5025906;28;20624;-43
2023/05/31 04:39:53;;;;;;;1.17;0.68;;;;;;;10.85;74.19;101484.91;5025476;28;20049;-45
2023/05/31 04:42:20;;;;;;;3.67;1.30;;;;;;;10.82;74.53;101474.47;5024059;28;20515;-48
2023/05/31 04:44:46;;;;;;;1.67;0.43;;;;;;;10.80;74.88;101477.91;5025255;28;20072;-45
2023/05/31 04:47:15;;;;;;;2.08;0.80;;;;;;;10.84;74.01;101488.34;5023924;28;20049;-44
2023/05/31 04:49:42;;;;;;;1.85;0.60;;;;;;;10.86;74.67;101481.44;5026108;28;20049;-44
2023/05/31 04:52:22;;;;;;;1.23;0.73;;;;;;;10.85;73.68;101484.91;5024195;28;20064;-44
2023/05/31 04:54:49;;;;;;;0.77;0.30;;;;;;;10.89;74.36;101489.28;5032653;28;20049;-44
2023/05/31 04:57:16;;;;;;;0.90;0.30;;;;;;;10.91;73.88;101490.22;5026312;28;20047;-47
2023/05/31 04:59:42;;;;;;;1.95;0.50;;;;;;;10.92;74.25;101491.94;5025256;28;20076;-45
2023/05/31 05:02:09;;;;;;;1.20;0.50;;;;;;;10.95;73.89;101491.13;5024457;28;20045;-44
2023/05/31 05:04:35;;;;;;;3.40;0.50;;;;;;;10.96;74.00;101491.16;5025442;28;20061;-44
2023/05/31 05:07:02;;;;;;;0.93;0.50;;;;;;;11.00;73.67;101487.78;5025967;28;20049;-45
2023/05/31 05:09:29;;;;;;;0.77;0.43;;;;;;;11.02;73.74;101491.25;5025849;28;20489;-43
2023/05/31 05:11:56;;;;;;;0.82;0.50;;;;;;;11.03;73.75;101485.25;5026573;28;20064;-45
2023/05/31 05:14:23;;;;;;;0.73;0.50;;;;;;;11.07;73.46;101477.53;5024616;28;20087;-44
2023/05/31 05:16:49;;;;;;;2.25;0.63;;;;;;;11.04;73.92;101481.81;5025521;28;20049;-44
2023/05/31 05:19:16;;;;;;;1.40;0.52;;;;;;;11.08;74.66;101489.66;5025717;28;20511;-44
2023/05/31 05:21:43;;;;;;;0.90;0.60;;;;;;;11.09;73.54;101478.41;5025324;28;20476;-44
2023/05/31 05:24:09;;;;;;;0.80;0.60;;;;;;;11.09;73.75;101483.59;5025469;28;20048;-43
2023/05/31 05:26:36;;;;;;;0.80;0.55;;;;;;;11.05;74.91;101483.53;5024681;28;20038;-46
2023/05/31 05:29:05;;;;;;;1.17;0.60;;;;;;;11.08;74.66;101489.66;5019997;28;20104;-45
2023/05/31 05:31:31;;;;;;;0.88;0.45;;;;;;;11.10;74.45;101495.72;5025070;28;20042;-44
2023/05/31 05:33:58;;;;;;;4.13;0.82;;;;;;;11.13;74.27;101495.78;5031262;28;20049;-43
2023/05/31 05:36:25;;;;;;;1.20;0.40;;;;;;;11.14;74.77;101492.34;5024999;28;20567;-45
2023/05/31 05:38:52;;;;;;;1.60;0.52;;;;;;;11.15;74.66;101491.50;5030421;28;20056;-44
2023/05/31 05:41:19;;;;;;;1.00;0.90;;;;;;;11.20;74.18;101497.63;5025449;28;20053;-43
2023/05/31 05:43:45;;;;;;;1.08;0.55;;;;;;;11.18;74.04;101497.63;5021208;28;20053;-46
2023/05/31 05:46:12;;;;;;;1.25;1.15;;;;;;;11.22;75.08;101493.38;5023755;28;20053;-46
2023/05/31 05:48:39;;;;;;;1.80;0.52;;;;;;;11.17;75.11;101492.38;5026074;28;20052;-43
2023/05/31 05:51:06;;;;;;;1.20;0.55;;;;;;;11.23;74.80;101492.50;5025211;28;20060;-44
2023/05/31 05:53:33;;;;;;;0.63;0.45;;;;;;;11.29;75.30;101500.38;5025521;28;20037;-45
2023/05/31 05:55:59;;;;;;;2.47;0.95;;;;;;;11.32;74.87;101502.19;5025612;28;20128;-44
2023/05/31 05:58:26;;;;;;;0.77;0.55;;;;;;;11.34;74.34;101504.81;5022568;28;20050;-46
2023/05/31 06:00:53;;;;;;;1.38;1.17;;;;;;;11.38;74.45;101504.00;5023935;28;20603;-45
2023/05/31 06:03:19;;;;;;;0.90;0.60;;;;;;;11.41;74.45;101511.81;5028535;28;20048;-46
2023/05/31 06:05:46;;;;;;;3.58;0.60;;;;;;;11.44;74.93;101506.69;5024740;28;20132;-47
2023/05/31 06:08:13;;;;;;;1.00;0.43;;;;;;;11.45;74.52;101508.44;5029348;28;20053;-46
2023/05/31 06:10:40;;;;;;;0.95;0.60;;;;;;;11.46;75.24;101505.03;5028806;28;20163;-44
2023/05/31 06:13:07;;;;;;;1.20;0.50;;;;;;;11.50;74.42;101506.81;5028754;28;20096;-45
2023/05/31 06:15:34;;;;;;;0.70;0.63;;;;;;;11.52;74.35;101504.25;5027374;28;20045;-45
2023/05/31 06:18:00;;;;;;;1.23;0.75;;;;;;;11.56;74.72;101504.31;5025446;28;20049;-47
2023/05/31 06:20:27;;;;;;;0.80;0.60;;;;;;;11.57;74.67;101507.78;5028453;28;20126;-46
2023/05/31 06:22:54;;;;;;;1.42;0.50;;;;;;;11.56;75.03;101512.09;5028674;28;20049;-44
2023/05/31 06:25:22;;;;;;;0.85;0.50;;;;;;;11.57;74.33;101503.47;5019886;28;20050;-44
2023/05/31 06:27:49;;;;;;;1.50;0.60;;;;;;;11.57;74.69;101503.47;5023520;28;20045;-46
2023/05/31 06:30:16;;;;;;;1.42;0.60;;;;;;;11.59;74.20;101506.09;5026927;28;20054;-47
2023/05/31 06:32:42;;;;;;;1.17;0.55;;;;;;;11.56;75.38;101506.03;5026900;28;20060;-45
2023/05/31 06:35:09;;;;;;;0.95;0.50;;;;;;;11.59;75.42;101516.47;5028438;28;20037;-46
2023/05/31 06:37:37;;;;;;;0.75;0.35;;;;;;;11.57;75.08;101519.03;5025120;28;20051;-45
2023/05/31 06:40:04;;;;;;;1.33;0.60;;;;;;;11.58;75.60;101514.72;5027632;28;20050;-46
2023/05/31 06:42:31;;;;;;;2.58;1.70;;;;;;;11.59;74.53;101515.59;5027761;28;20049;-43
2023/05/31 06:44:58;;;;;;;1.30;0.70;;;;;;;11.62;75.50;101505.28;5026289;28;20057;-45
2023/05/31 06:47:24;;;;;;;1.52;0.70;;;;;;;11.63;76.03;101514.78;5028882;28;20053;-46
2023/05/31 06:49:51;;;;;;;1.35;0.75;;;;;;;11.63;75.44;101520.00;5027084;28;20127;-47
2023/05/31 06:52:18;;;;;;;1.45;0.57;;;;;;;11.70;74.80;101514.06;5028491;28;20057;-46
2023/05/31 06:54:45;;;;;;;0.98;0.55;;;;;;;11.75;75.74;101507.19;5028079;28;20139;-45
2023/05/31 06:57:11;;;;;;;0.95;0.47;;;;;;;11.79;74.97;101513.34;5028426;28;20046;-47
2023/05/31 06:59:38;;;;;;;0.88;0.60;;;;;;;11.82;76.04;101514.25;5024887;28;20041;-45
2023/05/31 07:02:06;;;;;;;0.73;0.43;;;;;;;11.85;74.55;101512.56;5027314;28;20128;-46
2023/05/31 07:04:33;;;;;;;3.20;0.63;;;;;;;11.89;74.97;101514.34;5028008;28;20519;-45
2023/05/31 07:06:59;;;;;;;1.80;0.73;;;;;;;11.95;75.65;101509.22;5028072;28;20049;-44
2023/05/31 07:09:26;;;;;;;1.17;0.47;;;;;;;11.96;74.50;101511.00;5026938;28;20166;-49
2023/05/31 07:11:53;;;;;;;0.77;0.55;;;;;;;12.01;75.60;101514.53;5028097;28;20071;-46
2023/05/31 07:14:19;;;;;;;1.05;0.60;;;;;;;12.00;74.26;101512.78;5025677;28;20038;-45
2023/05/31 07:16:46;;;;;;;2.55;0.60;;;;;;;12.05;75.58;101516.31;5024806;28;20146;-45
2023/05/31 07:19:13;;;;;;;0.70;0.43;;;;;;;12.05;75.19;101515.44;5028091;28;20052;-45
2023/05/31 07:21:39;;;;;;;0.95;0.50;;;;;;;12.06;75.50;101512.91;5027549;28;20556;-46
2023/05/31 07:24:06;;;;;;;1.00;0.68;;;;;;;12.07;75.24;101517.25;5026405;28;20046;-45
2023/05/31 07:26:33;;;;;;;0.80;0.40;;;;;;;12.11;74.20;101512.09;5027956;28;20045;-45
2023/05/31 07:28:59;;;;;;;1.23;0.80;;;;;;;12.10;75.44;101508.63;5025549;28;20041;-45
2023/05/31 07:31:26;;;;;;;0.82;0.55;;;;;;;12.14;75.01;101507.81;5023765;28;20072;-43
2023/05/31 07:33:53;;;;;;;0.82;0.50;;;;;;;12.20;74.30;101502.69;5023295;28;20053;-47
2023/05/31 07:36:20;;;;;;;1.08;0.52;;;;;;;12.21;75.05;101504.47;5025798;28;20123;-45
2023/05/31 07:38:47;;;;;;;1.23;0.65;;;;;;;12.25;73.84;101513.16;5026065;28;20060;-44
2023/05/31 07:41:13;;;;;;;1.00;0.85;;;;;;;12.25;75.20;101512.28;5025966;28;20699;-47
2023/05/31 07:43:41;;;;;;;1.55;1.45;;;;;;;12.23;74.43;101504.50;5028135;28;20417;-45
2023/05/31 07:46:07;;;;;;;2.13;1.92;;;;;;;12.26;74.03;101504.50;5022955;28;20449;-46
2023/05/31 07:48:34;;;;;;;1.33;0.85;;;;;;;12.25;73.72;101510.56;5023128;28;20046;-47
2023/05/31 07:51:01;;;;;;;1.38;0.75;;;;;;;12.28;74.95;101502.81;5026668;28;20131;-49
2023/05/31 07:53:27;;;;;;;1.65;0.77;;;;;;;12.39;74.32;101504.69;5026163;28;20056;-49
2023/05/31 07:55:54;;;;;;;1.48;0.82;;;;;;;12.46;74.36;101506.50;5027670;28;20120;-46
2023/05/31 07:58:21;;;;;;;1.38;0.95;;;;;;;12.56;73.48;101510.97;5026761;28;20064;-46
2023/05/31 08:00:50;;;;;;;1.27;0.73;;;;;;;12.57;73.95;101510.09;5024940;28;20049;-47
2023/05/31 08:03:16;;;;;;;2.22;1.13;;;;;;;12.57;73.20;101510.09;5027012;28;20053;-45
2023/05/31 08:05:45;;;;;;;1.40;0.88;;;;;;;12.59;74.43;101503.22;5026791;28;20049;-47
2023/05/31 08:08:13;;;;;;;2.83;0.77;;;;;;;12.65;74.13;101494.63;5023812;28;20049;-50
2023/05/31 08:10:39;;;;;;;1.55;0.85;;;;;;;12.62;73.77;101506.69;5021899;28;20049;-46
2023/05/31 08:13:06;;;;;;;1.67;0.60;;;;;;;12.58;74.06;101501.47;5023440;28;20054;-50
2023/05/31 08:15:33;;;;;;;1.83;0.77;;;;;;;12.67;73.49;101505.03;5025888;28;20056;-46
2023/05/31 08:18:00;;;;;;;0.75;0.63;;;;;;;12.69;74.28;101503.31;5025537;28;20045;-44
2023/05/31 08:20:27;;;;;;;0.95;0.73;;;;;;;12.77;73.87;101504.28;5021608;28;20137;-46
2023/05/31 08:22:56;;;;;;;1.20;0.55;;;;;;;12.79;73.58;101497.38;5023331;28;20107;-45
2023/05/31 08:25:23;;;;;;;1.23;0.60;;;;;;;12.83;72.72;101501.75;5019767;28;20044;-47
2023/05/31 08:27:50;;;;;;;1.52;0.50;;;;;;;12.88;73.33;101503.53;5020680;28;20136;-46
2023/05/31 08:30:17;;;;;;;1.17;0.80;;;;;;;12.89;72.37;101500.06;5018039;28;20477;-45
2023/05/31 08:32:43;;;;;;;1.27;1.17;;;;;;;12.93;73.16;101507.03;5019570;28;20378;-47
2023/05/31 08:35:10;;;;;;;1.10;0.65;;;;;;;12.94;73.33;101503.59;5021756;28;20537;-43
2023/05/31 08:37:37;;;;;;;2.25;0.60;;;;;;;12.92;72.39;101500.09;5028292;28;20512;-44
2023/05/31 08:40:06;;;;;;;1.98;0.60;;;;;;;12.92;72.98;101493.19;5026512;28;20661;-46
2023/05/31 08:45:10;;;;;;;1.83;1.52;;;;;;;13.06;72.55;101490.72;5064473;27;20884;-43
2023/05/31 08:47:43;;;;;;;1.33;1.23;;;;;;;13.17;72.35;101501.22;4998926;28;20050;-43
2023/05/31 08:50:11;;;;;;;3.63;1.98;;;;;;;13.20;71.83;101489.97;4998226;28;20038;-46
2023/05/31 08:52:39;;;;;;;1.85;1.75;;;;;;;13.19;71.58;101483.03;4997055;28;20046;-44
2023/05/31 08:55:07;;;;;;;1.55;1.45;;;;;;;13.18;72.05;101489.09;5000739;28;20058;-43
2023/05/31 08:57:36;;;;;;;1.98;1.77;;;;;;;13.21;72.48;101502.16;5002849;28;20064;-43
2023/05/31 09:00:10;;;;;;;2.15;1.85;;;;;;;13.19;72.55;101488.25;5001789;28;20061;-47
2023/05/31 09:02:38;;;;;;;1.70;1.55;;;;;;;13.19;71.21;101491.72;5004149;28;20449;-44
2023/05/31 09:05:10;;;;;;;1.33;1.20;;;;;;;13.21;71.45;101487.38;5004232;28;20062;-46
2023/05/31 09:07:38;;;;;;;1.85;1.60;;;;;;;13.26;71.82;101487.44;5003702;28;20046;-43
2023/05/31 09:10:08;;;;;;;2.05;1.42;;;;;;;13.32;72.06;101494.44;5002271;28;20054;-46
2023/05/31 09:12:36;;;;;;;1.90;1.58;;;;;;;13.34;72.20;101493.59;5002668;28;20099;-44
2023/05/31 09:15:04;;;;;;;3.63;1.83;;;;;;;13.31;72.15;101492.69;5005480;28;20453;-47
2023/05/31 09:17:32;;;;;;;4.90;1.48;;;;;;;13.33;71.91;101490.97;4997757;28;20069;-46
2023/05/31 09:20:00;;;;;;;1.80;1.60;;;;;;;13.33;71.83;101486.66;5006578;28;20129;-45
2023/05/31 09:22:27;;;;;;;1.48;1.38;;;;;;;13.38;71.39;101489.28;5001845;28;20042;-45
2023/05/31 09:24:59;;;;;;;3.20;2.13;;;;;;;13.39;71.21;101490.16;5001390;28;20065;-46
2023/05/31 09:27:34;;;;;;;1.98;1.48;;;;;;;13.37;70.39;101493.63;5002380;28;20542;-46
2023/05/31 09:30:08;;;;;;;3.97;2.90;;;;;;;13.31;71.01;101488.34;5001652;28;20449;-44
2023/05/31 09:32:35;;;;;;;3.17;1.73;;;;;;;13.31;71.59;101488.34;5001698;28;20073;-45
2023/05/31 09:37:49;;;;;;;4.13;1.48;;;;;;;13.65;71.15;101473.91;5036497;27;20407;-43
2023/05/31 09:40:25;;;;;;;2.30;1.00;;;;;;;13.42;70.91;101490.19;5020523;28;20068;-44
2023/05/31 09:42:53;;;;;;;2.17;1.25;;;;;;;13.45;71.08;101485.00;5020648;28;20057;-43
2023/05/31 09:45:21;;;;;;;2.50;1.05;;;;;;;13.52;71.50;101479.03;5022388;28;20053;-45
2023/05/31 09:47:48;;;;;;;1.33;0.93;;;;;;;13.57;70.67;101482.53;5023384;28;20232;-43
2023/05/31 09:50:18;;;;;;;2.58;1.02;;;;;;;13.61;71.09;101481.69;5022843;28;20042;-45
2023/05/31 09:52:46;;;;;;;3.03;0.77;;;;;;;13.67;69.77;101474.78;5021993;28;20132;-46
2023/05/31 09:55:14;;;;;;;2.00;0.82;;;;;;;13.75;70.48;101478.34;5019462;28;20049;-46
2023/05/31 09:57:43;;;;;;;1.63;0.80;;;;;;;13.81;69.87;101472.31;5020096;28;20069;-44
2023/05/31 10:02:48;;;;;;;3.53;0.98;;;;;;;13.81;68.86;101475.75;5060344;28;21099;-49
2023/05/31 10:05:17;;;;;;;2.40;1.23;;;;;;;13.86;69.46;101476.69;5029115;27;20505;-48
2023/05/31 10:07:48;;;;;;;2.95;0.90;;;;;;;13.84;68.95;101483.59;5026707;28;20041;-48
2023/05/31 10:10:17;;;;;;;1.63;0.70;;;;;;;13.78;68.75;101480.94;5020081;28;20054;-47
2023/05/31 10:15:23;;;;;;;2.22;1.15;;;;;;;13.77;69.19;101476.59;5073655;27;20390;-47
2023/05/31 10:17:57;;;;;;;1.20;0.70;;;;;;;13.74;69.73;101486.97;5023042;28;20050;-48
2023/05/31 10:20:28;;;;;;;1.45;0.77;;;;;;;13.77;69.53;101478.34;5046405;28;20084;-45
2023/05/31 10:23:00;;;;;;;3.13;1.08;;;;;;;13.79;68.80;101474.88;5035854;28;20072;-44
2023/05/31 10:25:35;;;;;;;3.40;1.48;;;;;;;13.78;68.80;101478.34;5042220;28;20053;-46
2023/05/31 10:28:09;;;;;;;1.45;0.80;;;;;;;13.83;68.76;101481.84;5042399;28;20159;-47
2023/05/31 10:30:40;;;;;;;2.15;0.65;;;;;;;13.96;69.09;101492.34;5042433;28;20052;-45
2023/05/31 10:33:10;;;;;;;3.60;0.73;;;;;;;14.03;68.61;101481.13;5043011;28;20044;-44
2023/05/31 10:35:37;;;;;;;1.52;0.88;;;;;;;14.01;68.97;101485.44;5036470;28;20045;-48
2023/05/31 10:38:05;;;;;;;2.25;1.02;;;;;;;13.97;67.59;101484.56;5042406;28;20056;-46
2023/05/31 10:40:55;;;;;;;3.53;0.90;;;;;;;13.92;67.62;101481.06;5042990;28;20493;-46
2023/05/31 10:43:33;;;;;;;3.70;1.40;;;;;;;13.94;68.69;101484.53;5041686;28;20048;-48
2023/05/31 10:46:04;;;;;;;2.33;1.17;;;;;;;14.00;68.60;101488.91;5037825;28;20054;-45
2023/05/31 10:51:10;;;;;;;3.20;2.47;;;;;;;13.94;68.23;101478.44;5048461;28;20712;-44
2023/05/31 10:53:38;;;;;;;3.97;2.67;;;;;;;13.89;68.91;101486.25;4989946;28;20039;-46
2023/05/31 10:56:09;;;;;;;3.92;3.00;;;;;;;13.87;68.64;101478.41;4998579;28;20050;-46
2023/05/31 10:58:38;;;;;;;4.63;2.55;;;;;;;13.78;68.94;101480.94;4994348;28;20399;-46
2023/05/31 11:01:08;;;;;;;3.90;2.60;;;;;;;13.75;69.05;101481.78;5018643;28;20117;-50
2023/05/31 11:03:35;;;;;;;;;;;;;;;13.62;69.30;101480.81;4978881;28;20047;-43
2023/05/31 11:06:08;;;;;;;3.65;2.42;;;;;;;13.72;68.70;101473.09;4985995;28;19934;-46
2023/05/31 11:08:36;;;;;;;6.15;2.92;;;;;;;13.79;68.81;101477.50;4991853;28;20051;-45
2023/05/31 11:14:06;;;;;;;3.45;1.90;;;;;;;13.92;68.67;101480.19;5041162;27;20398;-44
2023/05/31 11:24:58;;;;;;;3.33;2.28;;;;;;;14.18;68.03;101472.50;5065013;27;21101;-49
2023/05/31 11:27:41;;;;;;;6.03;2.35;;;;;;;14.21;68.12;101476.84;5005995;28;20065;-46
2023/05/31 11:30:09;;;;;;;3.70;1.83;;;;;;;14.20;67.01;101475.13;5003044;28;20053;-45
2023/05/31 11:35:16;;;;;;;4.82;2.85;;;;;;;14.17;67.67;101459.47;5029731;27;20432;-45
2023/05/31 11:37:43;;;;;;;3.70;2.58;;;;;;;14.20;67.64;101469.91;5003675;28;20052;-51
2023/05/31 11:40:14;;;;;;;2.85;2.03;;;;;;;14.25;67.62;101450.81;5003675;28;20578;-52
2023/05/31 11:42:42;;;;;;;5.65;3.22;;;;;;;14.26;66.80;101459.53;5009288;28;20100;-49
2023/05/31 11:45:12;;;;;;;4.70;2.97;;;;;;;14.26;66.56;101469.94;5005592;28;20134;-51
2023/05/31 11:50:24;;;;;;;4.38;1.88;;;;;;;14.23;66.98;101470.81;5062246;27;20423;-50
2023/05/31 11:52:54;;;;;;;6.45;2.13;;;;;;;14.22;67.56;101469.03;5053566;28;20059;-48
2023/05/31 11:55:21;;;;;;;4.95;2.13;;;;;;;14.15;67.50;101467.25;5059393;28;20080;-46
2023/05/31 11:57:53;;;;;;;3.78;1.70;;;;;;;14.08;67.20;101460.31;5041218;28;20416;-46
2023/05/31 12:00:21;;;;;;;5.68;2.15;;;;;;;14.09;67.68;101462.88;5041164;28;20052;-45
2023/05/31 12:02:53;;;;;;;3.88;1.85;;;;;;;14.06;68.03;101455.09;5042689;28;20049;-45